createdAt,value
2016-04-04T00:00:15.203Z,15.46
2016-04-04T00:01:15.237Z,15.37
2016-04-04T00:02:15.301Z,15.35
2016-04-04T00:03:15.337Z,15.22
2016-04-04T00:04:15.370Z,15.24
2016-04-04T00:05:15.404Z,15.35
2016-04-04T00:06:15.484Z,15.19
2016-04-04T00:07:15.503Z,15.06
2016-04-04T00:08:15.537Z,15.1
2016-04-04T00:09:15.555Z,15.24
2016-04-04T00:10:15.605Z,15.25
2016-04-04T00:11:15.654Z,15.22
2016-04-04T00:12:15.704Z,15.19
2016-04-04T00:13:15.722Z,15.21
2016-04-04T00:14:15.772Z,15.29
2016-04-04T00:15:15.806Z,15.19
2016-04-04T00:16:15.856Z,15.19
2016-04-04T00:17:15.889Z,15.19
2016-04-04T00:18:15.954Z,15.1
2016-04-04T00:19:15.972Z,15.14
2016-04-04T00:20:16.053Z,15.19
2016-04-04T00:21:16.072Z,15.15
2016-04-04T00:22:16.075Z,15.1
2016-04-04T00:23:16.124Z,15.04
2016-04-04T00:24:16.158Z,15.09
2016-04-04T00:25:16.207Z,14.94
2016-04-04T00:26:16.257Z,15
2016-04-04T00:27:16.291Z,15.03
2016-04-04T00:28:16.325Z,15.14
2016-04-04T00:29:16.374Z,15.09
2016-04-04T00:30:16.393Z,15.11
2016-04-04T00:31:16.426Z,15.04
2016-04-04T00:32:16.507Z,15
2016-04-04T00:33:16.542Z,14.96
2016-04-04T00:34:16.560Z,15
2016-04-04T00:35:16.593Z,15.03
2016-04-04T00:36:16.643Z,14.99
2016-04-04T00:37:16.677Z,15.03
2016-04-04T00:38:16.742Z,15.06
2016-04-04T00:39:16.777Z,15.03
2016-04-04T00:40:16.810Z,15.03
2016-04-04T00:41:16.845Z,15.02
2016-04-04T00:42:16.878Z,14.91
2016-04-04T00:43:16.802Z,14.96
2016-04-04T00:44:16.961Z,14.89
2016-04-04T00:45:16.996Z,14.92
2016-04-04T00:46:17.030Z,14.88
2016-04-04T00:47:17.080Z,14.88
2016-04-04T00:48:17.128Z,14.88
2016-04-04T00:49:17.178Z,14.84
2016-04-04T00:50:17.212Z,14.81
2016-04-04T00:51:17.246Z,14.81
2016-04-04T00:52:17.280Z,14.82
2016-04-04T00:53:17.314Z,14.85
2016-04-04T00:54:17.379Z,14.86
2016-04-04T00:55:17.397Z,14.73
2016-04-04T00:56:17.447Z,14.88
2016-04-04T00:57:17.466Z,14.81
2016-04-04T00:58:17.530Z,14.85
2016-04-04T00:59:17.549Z,14.92
2016-04-04T01:00:17.598Z,14.88
2016-04-04T01:01:17.663Z,14.69
2016-04-04T01:02:17.698Z,14.85
2016-04-04T01:03:17.716Z,14.68
2016-04-04T01:04:17.751Z,14.84
2016-04-04T01:05:17.799Z,14.78
2016-04-04T01:06:17.834Z,14.73
2016-04-04T01:07:17.868Z,14.73
2016-04-04T01:08:17.918Z,14.62
2016-04-04T01:09:17.935Z,14.63
2016-04-04T01:10:17.985Z,14.66
2016-04-04T01:11:18.035Z,14.66
2016-04-04T01:12:18.068Z,14.62
2016-04-04T01:13:17.962Z,14.63
2016-04-04T01:14:18.152Z,14.63
2016-04-04T01:15:18.186Z,14.55
2016-04-04T01:16:18.220Z,14.6
2016-04-04T01:17:18.269Z,14.63
2016-04-04T01:18:18.303Z,14.53
2016-04-04T01:19:18.353Z,14.55
2016-04-04T01:20:18.386Z,14.53
2016-04-04T01:21:18.421Z,14.51
2016-04-04T01:22:18.455Z,14.48
2016-04-04T01:23:18.505Z,14.37
2016-04-04T01:24:18.539Z,14.41
2016-04-04T01:25:18.588Z,14.29
2016-04-04T01:26:18.466Z,14.37
2016-04-04T01:27:18.655Z,14.33
2016-04-04T01:28:18.690Z,14.4
2016-04-04T01:29:18.738Z,14.4
2016-04-04T01:30:18.773Z,14.48
2016-04-04T01:31:18.823Z,14.45
2016-04-04T01:32:18.857Z,14.35
2016-04-04T01:33:18.907Z,14.29
2016-04-04T01:34:18.940Z,14.32
2016-04-04T01:35:18.974Z,14.28
2016-04-04T01:36:19.024Z,14.17
2016-04-04T01:37:19.058Z,14.17
2016-04-04T01:38:19.092Z,14.15
2016-04-04T01:39:19.141Z,14.17
2016-04-04T01:40:19.176Z,14.15
2016-04-04T01:41:19.209Z,14.17
2016-04-04T01:42:19.243Z,14.22
2016-04-04T01:43:19.292Z,14.23
2016-04-04T01:44:19.326Z,14.23
2016-04-04T01:45:19.361Z,14.28
2016-04-04T01:46:19.409Z,14.35
2016-04-04T01:47:19.444Z,14.35
2016-04-04T01:48:19.477Z,14.3
2016-04-04T01:49:19.511Z,14.23
2016-04-04T01:50:19.561Z,14.29
2016-04-04T01:51:19.610Z,14.3
2016-04-04T01:52:19.644Z,14.26
2016-04-04T01:53:19.678Z,14.28
2016-04-04T01:54:19.712Z,14.26
2016-04-04T01:55:19.746Z,14.32
2016-04-04T01:56:19.796Z,14.25
2016-04-04T01:57:19.830Z,14.14
2016-04-04T01:58:19.863Z,14.23
2016-04-04T01:59:19.913Z,14.36
2016-04-04T02:00:19.952Z,14.43
2016-04-04T02:01:19.987Z,14.29
2016-04-04T02:02:20.036Z,14.32
2016-04-04T02:03:20.054Z,14.32
2016-04-04T02:04:20.104Z,14.33
2016-04-04T02:05:20.153Z,14.22
2016-04-04T02:06:20.187Z,14.28
2016-04-04T02:07:20.221Z,14.17
2016-04-04T02:08:20.270Z,14.2
2016-04-04T02:09:20.304Z,14.2
2016-04-04T02:10:20.339Z,14.17
2016-04-04T02:11:20.373Z,14.22
2016-04-04T02:12:20.422Z,14.22
2016-04-04T02:13:20.456Z,14.29
2016-04-04T02:14:20.490Z,14.26
2016-04-04T02:15:20.525Z,14.28
2016-04-04T02:16:20.573Z,14.3
2016-04-04T02:17:20.608Z,14.41
2016-04-04T02:18:20.657Z,14.37
2016-04-04T02:19:20.706Z,14.45
2016-04-04T02:20:20.725Z,14.43
2016-04-04T02:21:20.775Z,14.43
2016-04-04T02:22:20.809Z,14.4
2016-04-04T02:23:20.858Z,14.45
2016-04-04T02:24:20.892Z,14.5
2016-04-04T02:25:20.941Z,14.41
2016-04-04T02:26:20.960Z,14.43
2016-04-04T02:27:21.010Z,14.43
2016-04-04T02:28:21.044Z,14.37
2016-04-04T02:29:21.077Z,14.48
2016-04-04T02:30:21.111Z,14.48
2016-04-04T02:31:21.161Z,14.55
2016-04-04T02:32:21.210Z,14.43
2016-04-04T02:33:21.244Z,14.37
2016-04-04T02:34:21.279Z,14.41
2016-04-04T02:35:21.328Z,14.41
2016-04-04T02:36:21.346Z,14.41
2016-04-04T02:37:21.396Z,14.4
2016-04-04T02:38:21.429Z,14.53
2016-04-04T02:39:21.464Z,14.5
2016-04-04T02:40:21.513Z,14.43
2016-04-04T02:41:21.547Z,14.47
2016-04-04T02:42:21.581Z,14.3
2016-04-04T02:43:21.615Z,14.4
2016-04-04T02:44:21.649Z,14.37
2016-04-04T02:45:21.698Z,14.4
2016-04-04T02:46:21.748Z,14.41
2016-04-04T02:47:21.782Z,14.47
2016-04-04T02:48:21.800Z,14.36
2016-04-04T02:49:21.866Z,14.43
2016-04-04T02:50:21.899Z,14.35
2016-04-04T02:51:21.933Z,14.29
2016-04-04T02:52:21.967Z,14.36
2016-04-04T02:53:22.016Z,14.25
2016-04-04T02:54:22.050Z,14.35
2016-04-04T02:55:22.085Z,14.3
2016-04-04T02:56:22.134Z,14.33
2016-04-04T02:57:22.169Z,14.4
2016-04-04T02:58:22.202Z,14.3
2016-04-04T02:59:22.236Z,14.29
2016-04-04T03:00:22.285Z,14.26
2016-04-04T03:01:22.320Z,14.29
2016-04-04T03:02:22.354Z,14.36
2016-04-04T03:03:22.403Z,14.32
2016-04-04T03:04:22.422Z,14.29
2016-04-04T03:05:22.471Z,14.33
2016-04-04T03:06:22.521Z,14.32
2016-04-04T03:07:22.554Z,14.25
2016-04-04T03:08:22.769Z,14.25
2016-04-04T03:09:22.632Z,14.28
2016-04-04T03:10:22.665Z,14.32
2016-04-04T03:11:22.715Z,14.32
2016-04-04T03:12:22.749Z,14.25
2016-04-04T03:13:22.782Z,14.32
2016-04-04T03:14:22.816Z,14.36
2016-04-04T03:15:22.866Z,14.25
2016-04-04T03:16:22.900Z,14.33
2016-04-04T03:17:22.934Z,14.32
2016-04-04T03:18:22.984Z,14.23
2016-04-04T03:19:23.018Z,14.35
2016-04-04T03:20:23.051Z,14.3
2016-04-04T03:21:23.101Z,14.36
2016-04-04T03:22:23.135Z,14.36
2016-04-04T03:23:23.184Z,14.29
2016-04-04T03:24:23.218Z,14.28
2016-04-04T03:25:23.253Z,14.23
2016-04-04T03:26:23.302Z,14.2
2016-04-04T03:27:23.336Z,14.26
2016-04-04T03:28:23.370Z,14.29
2016-04-04T03:29:23.419Z,14.29
2016-04-04T03:30:23.453Z,14.33
2016-04-04T03:31:23.487Z,14.32
2016-04-04T03:32:23.521Z,14.29
2016-04-04T03:33:23.555Z,14.3
2016-04-04T03:34:23.605Z,14.26
2016-04-04T03:35:23.639Z,14.29
2016-04-04T03:36:23.688Z,14.18
2016-04-04T03:37:23.722Z,14.25
2016-04-04T03:38:23.756Z,14.18
2016-04-04T03:39:23.806Z,14.25
2016-04-04T03:40:23.840Z,14.18
2016-04-04T03:41:23.873Z,14.14
2016-04-04T03:42:23.924Z,14.17
2016-04-04T03:43:23.957Z,14.1
2016-04-04T03:44:23.990Z,14.15
2016-04-04T03:45:24.041Z,14.03
2016-04-04T03:46:24.075Z,14.07
2016-04-04T03:47:24.109Z,14
2016-04-04T03:48:24.142Z,14.08
2016-04-04T03:49:24.177Z,14.07
2016-04-04T03:50:24.242Z,14.15
2016-04-04T03:51:24.275Z,14.17
2016-04-04T03:52:24.309Z,14.2
2016-04-04T03:53:24.328Z,14.23
2016-04-04T03:54:24.378Z,14.2
2016-04-04T03:55:24.411Z,14.11
2016-04-04T03:56:24.492Z,14.17
2016-04-04T03:57:24.511Z,14.07
2016-04-04T03:58:24.529Z,14.1
2016-04-04T03:59:24.578Z,14.12
2016-04-04T04:00:24.597Z,14.17
2016-04-04T04:01:24.662Z,14.11
2016-04-04T04:02:24.711Z,14.12
2016-04-04T04:03:24.730Z,14.11
2016-04-04T04:04:24.764Z,14.14
2016-04-04T04:05:24.813Z,14.17
2016-04-04T04:06:24.864Z,14.11
2016-04-04T04:07:24.882Z,14.22
2016-04-04T04:08:24.916Z,14.23
2016-04-04T04:09:24.981Z,14.22
2016-04-04T04:10:25.000Z,14.25
2016-04-04T04:11:25.049Z,14.22
2016-04-04T04:12:25.083Z,14.17
2016-04-04T04:13:25.117Z,14.22
2016-04-04T04:14:25.183Z,14.17
2016-04-04T04:15:25.200Z,14.22
2016-04-04T04:16:25.219Z,14.23
2016-04-04T04:17:25.269Z,14.29
2016-04-04T04:18:25.302Z,14.23
2016-04-04T04:19:25.352Z,14.25
2016-04-04T04:20:25.385Z,14.3
2016-04-04T04:21:25.452Z,14.2
2016-04-04T04:22:25.469Z,14.26
2016-04-04T04:23:25.502Z,14.28
2016-04-04T04:24:25.538Z,14.2
2016-04-04T04:25:25.571Z,14.28
2016-04-04T04:26:25.605Z,14.23
2016-04-04T04:27:25.654Z,14.26
2016-04-04T04:28:25.705Z,14.29
2016-04-04T04:29:25.738Z,14.25
2016-04-04T04:30:25.787Z,14.23
2016-04-04T04:31:25.806Z,14.22
2016-04-04T04:32:25.839Z,14.2
2016-04-04T04:33:25.890Z,14.2
2016-04-04T04:34:25.939Z,14.1
2016-04-04T04:35:25.973Z,14.18
2016-04-04T04:36:26.038Z,14.1
2016-04-04T04:37:26.040Z,14.11
2016-04-04T04:38:26.075Z,14.07
2016-04-04T04:39:26.124Z,14.15
2016-04-04T04:40:26.159Z,14.11
2016-04-04T04:41:26.208Z,14.07
2016-04-04T04:42:26.242Z,14.04
2016-04-04T04:43:26.275Z,14.03
2016-04-04T04:44:26.309Z,13.93
2016-04-04T04:45:26.344Z,13.92
2016-04-04T04:46:26.408Z,13.86
2016-04-04T04:47:26.442Z,13.78
2016-04-04T04:48:26.461Z,13.81
2016-04-04T04:49:26.511Z,13.74
2016-04-04T04:50:26.544Z,13.78
2016-04-04T04:51:26.594Z,13.77
2016-04-04T04:52:26.628Z,13.72
2016-04-04T04:53:26.677Z,13.71
2016-04-04T04:54:26.696Z,13.71
2016-04-04T04:55:26.729Z,13.74
2016-04-04T04:56:26.779Z,13.72
2016-04-04T04:57:26.829Z,13.67
2016-04-04T04:58:26.863Z,13.71
2016-04-04T04:59:26.896Z,13.75
2016-04-04T05:00:26.946Z,13.75
2016-04-04T05:01:26.980Z,13.74
2016-04-04T05:02:27.014Z,13.65
2016-04-04T05:03:27.065Z,13.68
2016-04-04T05:04:27.098Z,13.71
2016-04-04T05:05:27.132Z,13.65
2016-04-04T05:06:27.165Z,13.68
2016-04-04T05:07:27.215Z,13.74
2016-04-04T05:08:27.249Z,13.72
2016-04-04T05:09:27.283Z,13.72
2016-04-04T05:10:27.317Z,13.75
2016-04-04T05:11:27.366Z,13.77
2016-04-04T05:12:27.401Z,13.71
2016-04-04T05:13:27.450Z,13.72
2016-04-04T05:14:27.468Z,13.72
2016-04-04T05:15:27.518Z,13.77
2016-04-04T05:16:27.553Z,13.75
2016-04-04T05:17:27.586Z,13.78
2016-04-04T05:18:27.619Z,13.74
2016-04-04T05:19:27.670Z,13.85
2016-04-04T05:20:27.703Z,13.77
2016-04-04T05:21:27.737Z,13.85
2016-04-04T05:22:27.786Z,13.85
2016-04-04T05:23:27.805Z,13.74
2016-04-04T05:24:27.871Z,13.74
2016-04-04T05:25:27.732Z,13.79
2016-04-04T05:26:27.943Z,13.9
2016-04-04T05:27:27.983Z,13.9
2016-04-04T05:28:28.037Z,13.89
2016-04-04T05:29:28.040Z,13.99
2016-04-04T05:30:28.090Z,14.05
2016-04-04T05:31:28.171Z,14.08
2016-04-04T05:32:28.173Z,14.22
2016-04-04T05:33:28.051Z,14.3
2016-04-04T05:34:28.240Z,14.32
2016-04-04T05:35:28.290Z,14.33
2016-04-04T05:36:28.324Z,14.4
2016-04-04T05:37:28.359Z,14.47
2016-04-04T05:38:28.393Z,14.32
2016-04-04T05:39:28.426Z,14.45
2016-04-04T05:40:28.476Z,14.55
2016-04-04T05:41:28.509Z,14.47
2016-04-04T05:42:28.559Z,14.51
2016-04-04T05:43:28.593Z,14.58
2016-04-04T05:44:28.642Z,14.65
2016-04-04T05:45:28.678Z,14.65
2016-04-04T05:46:28.711Z,14.77
2016-04-04T05:47:28.745Z,14.73
2016-04-04T05:48:28.779Z,14.77
2016-04-04T05:49:28.844Z,14.85
2016-04-04T05:50:28.878Z,14.92
2016-04-04T05:51:28.911Z,14.89
2016-04-04T05:52:28.930Z,14.91
2016-04-04T05:53:28.979Z,14.96
2016-04-04T05:54:29.030Z,15.02
2016-04-04T05:55:29.063Z,15.02
2016-04-04T05:56:29.096Z,15.28
2016-04-04T05:57:29.147Z,15.28
2016-04-04T05:58:29.197Z,15.25
2016-04-04T05:59:29.215Z,15.29
2016-04-04T06:00:29.279Z,15.19
2016-04-04T06:01:29.298Z,15.25
2016-04-04T06:02:29.332Z,15.29
2016-04-04T06:03:29.365Z,15.42
2016-04-04T06:04:29.431Z,15.47
2016-04-04T06:05:29.449Z,15.44
2016-04-04T06:06:29.484Z,15.49
2016-04-04T06:07:29.532Z,15.55
2016-04-04T06:08:29.567Z,15.52
2016-04-04T06:09:29.617Z,15.67
2016-04-04T06:10:29.650Z,15.8
2016-04-04T06:11:29.684Z,15.67
2016-04-04T06:12:29.718Z,15.64
2016-04-04T06:13:29.767Z,15.82
2016-04-04T06:14:29.817Z,15.83
2016-04-04T06:15:29.851Z,15.98
2016-04-04T06:16:29.900Z,16
2016-04-04T06:17:29.934Z,16.08
2016-04-04T06:18:29.969Z,16.1
2016-04-04T06:19:30.019Z,16.24
2016-04-04T06:20:30.052Z,16.41
2016-04-04T06:21:30.102Z,16.58
2016-04-04T06:22:30.136Z,16.56
2016-04-04T06:23:30.169Z,16.43
2016-04-04T06:24:30.219Z,16.28
2016-04-04T06:25:30.252Z,16.33
2016-04-04T06:26:30.287Z,16.28
2016-04-04T06:27:30.321Z,16.26
2016-04-04T06:28:30.213Z,16.21
2016-04-04T06:29:30.405Z,16.31
2016-04-04T06:30:30.454Z,16.53
2016-04-04T06:31:30.332Z,17.06
2016-04-04T06:32:30.537Z,17.3
2016-04-04T06:33:30.572Z,17.29
2016-04-04T06:34:30.621Z,17.42
2016-04-04T06:35:30.654Z,17.49
2016-04-04T06:36:30.690Z,17.72
2016-04-04T06:37:30.738Z,17.92
2016-04-04T06:38:30.773Z,17.98
2016-04-04T06:39:30.822Z,17.95
2016-04-04T06:40:30.871Z,17.92
2016-04-04T06:41:30.890Z,17.54
2016-04-04T06:42:30.939Z,17.39
2016-04-04T06:43:30.973Z,17.27
2016-04-04T06:44:31.023Z,16.93
2016-04-04T06:45:31.073Z,16.9
2016-04-04T06:46:31.091Z,16.78
2016-04-04T06:47:31.156Z,16.74
2016-04-04T06:48:31.175Z,16.72
2016-04-04T06:49:31.224Z,16.64
2016-04-04T06:50:31.258Z,16.65
2016-04-04T06:51:31.307Z,16.66
2016-04-04T06:52:31.357Z,16.68
2016-04-04T06:53:31.391Z,16.51
2016-04-04T06:54:31.441Z,16.65
2016-04-04T06:55:31.474Z,16.57
2016-04-04T06:56:31.524Z,16.58
2016-04-04T06:57:31.558Z,16.57
2016-04-04T06:58:31.591Z,16.71
2016-04-04T06:59:31.657Z,16.58
2016-04-04T07:00:31.680Z,16.61
2016-04-04T07:01:31.730Z,16.83
2016-04-04T07:02:31.748Z,16.97
2016-04-04T07:03:31.813Z,17.19
2016-04-04T07:04:31.847Z,17.41
2016-04-04T07:05:31.882Z,17.41
2016-04-04T07:06:31.915Z,17.42
2016-04-04T07:07:31.949Z,17.38
2016-04-04T07:08:32.014Z,17.16
2016-04-04T07:09:32.048Z,17.2
2016-04-04T07:10:32.081Z,17.09
2016-04-04T07:11:32.131Z,17.11
2016-04-04T07:12:32.181Z,17.08
2016-04-04T07:13:32.214Z,17.16
2016-04-04T07:14:32.265Z,17.41
2016-04-04T07:15:32.298Z,17.63
2016-04-04T07:16:32.332Z,17.87
2016-04-04T07:17:32.382Z,17.94
2016-04-04T07:18:32.416Z,18
2016-04-04T07:19:32.466Z,18.23
2016-04-04T07:20:32.499Z,17.98
2016-04-04T07:21:32.550Z,17.7
2016-04-04T07:22:32.599Z,17.67
2016-04-04T07:23:32.633Z,17.6
2016-04-04T07:24:32.666Z,17.51
2016-04-04T07:25:32.700Z,17.71
2016-04-04T07:26:32.750Z,17.6
2016-04-04T07:27:32.800Z,17.54
2016-04-04T07:28:32.849Z,17.63
2016-04-04T07:29:32.898Z,17.52
2016-04-04T07:30:32.918Z,17.51
2016-04-04T07:31:32.952Z,17.45
2016-04-04T07:32:33.016Z,17.42
2016-04-04T07:33:33.034Z,17.76
2016-04-04T07:34:33.085Z,17.7
2016-04-04T07:35:33.117Z,17.83
2016-04-04T07:36:33.152Z,17.98
2016-04-04T07:37:33.201Z,18.22
2016-04-04T07:38:33.251Z,18.28
2016-04-04T07:39:33.301Z,18.29
2016-04-04T07:40:33.351Z,18.08
2016-04-04T07:41:33.368Z,18.04
2016-04-04T07:42:33.402Z,17.85
2016-04-04T07:43:33.453Z,17.98
2016-04-04T07:44:33.502Z,18.11
2016-04-04T07:45:33.536Z,18.31
2016-04-04T07:46:33.585Z,18.4
2016-04-04T07:47:33.619Z,18.41
2016-04-04T07:48:33.669Z,18.38
2016-04-04T07:49:32.969Z,18.52
2016-04-04T07:50:33.736Z,18.53
2016-04-04T07:51:33.786Z,18.6
2016-04-04T07:52:33.835Z,18.84
2016-04-04T07:53:33.886Z,19.02
2016-04-04T07:54:33.903Z,19.33
2016-04-04T07:55:33.952Z,19.58
2016-04-04T07:56:34.003Z,19.71
2016-04-04T07:57:34.036Z,19.62
2016-04-04T07:58:34.086Z,19.69
2016-04-04T07:59:34.135Z,19.67
2016-04-04T08:00:34.029Z,19.69
2016-04-04T08:01:34.203Z,19.48
2016-04-04T08:02:34.254Z,19.4
2016-04-04T08:03:34.287Z,19.44
2016-04-04T08:04:34.337Z,19
2016-04-04T08:05:34.371Z,18.93
2016-04-04T08:06:34.421Z,18.74
2016-04-04T08:07:34.470Z,18.75
2016-04-04T08:08:34.534Z,18.77
2016-04-04T08:09:34.553Z,18.8
2016-04-04T08:10:34.587Z,18.75
2016-04-04T08:11:34.653Z,18.7
2016-04-04T08:12:34.686Z,18.83
2016-04-04T08:13:34.564Z,18.96
2016-04-04T08:14:34.769Z,19.04
2016-04-04T08:15:34.819Z,19.19
2016-04-04T08:16:34.853Z,19.24
2016-04-04T08:17:34.903Z,19.29
2016-04-04T08:18:34.953Z,19.31
2016-04-04T08:19:34.986Z,19.4
2016-04-04T08:20:35.036Z,19.41
2016-04-04T08:21:35.101Z,19.51
2016-04-04T08:22:35.119Z,19.49
2016-04-04T08:23:35.153Z,19.85
2016-04-04T08:24:35.219Z,19.58
2016-04-04T08:25:35.253Z,19.7
2016-04-04T08:26:35.302Z,19.86
2016-04-04T08:27:35.383Z,20.26
2016-04-04T08:28:35.385Z,20.36
2016-04-04T08:29:35.436Z,20.16
2016-04-04T08:30:35.485Z,20.25
2016-04-04T08:31:35.519Z,20.62
2016-04-04T08:32:35.568Z,21.06
2016-04-04T08:33:35.623Z,21.67
2016-04-04T08:34:35.646Z,21.52
2016-04-04T08:35:35.668Z,20.93
2016-04-04T08:36:35.706Z,20.59
2016-04-04T08:37:35.727Z,20.41
2016-04-04T08:38:35.788Z,20.78
2016-04-04T08:39:35.817Z,20.7
2016-04-04T08:40:35.862Z,20.88
2016-04-04T08:41:35.908Z,20.47
2016-04-04T08:42:35.937Z,19.92
2016-04-04T08:43:35.969Z,20.1
2016-04-04T08:44:36.017Z,20.7
2016-04-04T08:45:36.066Z,21.36
2016-04-04T08:46:36.114Z,21.3
2016-04-04T08:47:36.145Z,21.21
2016-04-04T08:48:36.195Z,20.78
2016-04-04T08:49:36.227Z,20.32
2016-04-04T08:50:36.323Z,20.4
2016-04-04T08:51:36.340Z,20.36
2016-04-04T08:52:36.374Z,20.39
2016-04-04T08:53:36.423Z,20.03
2016-04-04T08:54:36.457Z,19.71
2016-04-04T08:55:36.506Z,19.48
2016-04-04T08:56:37.101Z,19.24
2016-04-04T08:57:36.572Z,19.52
2016-04-04T08:58:36.622Z,19.52
2016-04-04T08:59:36.672Z,19.22
2016-04-04T09:00:36.722Z,19.21
2016-04-04T09:01:36.771Z,18.99
2016-04-04T09:02:36.788Z,18.93
2016-04-04T09:03:36.870Z,18.92
2016-04-04T09:04:36.919Z,18.68
2016-04-04T09:05:36.938Z,18.75
2016-04-04T09:06:37.127Z,18.56
2016-04-04T09:07:36.880Z,18.49
2016-04-04T09:08:37.055Z,18.6
2016-04-04T09:09:37.105Z,18.74
2016-04-04T09:10:37.170Z,18.75
2016-04-04T09:11:37.204Z,18.81
2016-04-04T09:12:37.253Z,18.83
2016-04-04T09:13:37.287Z,18.71
2016-04-04T09:14:37.321Z,18.58
2016-04-04T09:15:37.387Z,18.68
2016-04-04T09:16:37.404Z,18.59
2016-04-04T09:17:37.470Z,18.53
2016-04-04T09:18:37.520Z,18.55
2016-04-04T09:19:37.537Z,18.5
2016-04-04T09:20:37.603Z,18.38
2016-04-04T09:21:37.637Z,18.4
2016-04-04T09:22:37.686Z,18.35
2016-04-04T09:23:37.720Z,18.16
2016-04-04T09:24:37.786Z,18.15
2016-04-04T09:25:37.820Z,18.22
2016-04-04T09:26:37.869Z,18.4
2016-04-04T09:27:37.888Z,18.41
2016-04-04T09:28:37.953Z,18.49
2016-04-04T09:29:37.986Z,18.65
2016-04-04T09:30:38.036Z,18.63
2016-04-04T09:31:38.070Z,18.71
2016-04-04T09:32:38.119Z,18.86
2016-04-04T09:33:38.169Z,18.95
2016-04-04T09:34:38.235Z,19.16
2016-04-04T09:35:38.237Z,19.34
2016-04-04T09:36:38.302Z,19.27
2016-04-04T09:37:38.336Z,19.44
2016-04-04T09:38:38.386Z,19.34
2016-04-04T09:39:38.420Z,19.15
2016-04-04T09:40:38.469Z,19.11
2016-04-04T09:41:38.518Z,19.15
2016-04-04T09:42:38.568Z,18.89
2016-04-04T09:43:38.602Z,18.92
2016-04-04T09:44:38.652Z,18.8
2016-04-04T09:45:38.687Z,18.81
2016-04-04T09:46:38.720Z,18.9
2016-04-04T09:47:38.753Z,18.92
2016-04-04T09:48:38.804Z,18.98
2016-04-04T09:49:38.854Z,19.12
2016-04-04T09:50:38.887Z,19.3
2016-04-04T09:51:38.936Z,19.24
2016-04-04T09:52:39.033Z,19.44
2016-04-04T09:53:39.019Z,19.44
2016-04-04T09:54:39.069Z,19.45
2016-04-04T09:55:39.104Z,19.49
2016-04-04T09:56:39.200Z,19.56
2016-04-04T09:57:39.203Z,19.55
2016-04-04T09:58:39.236Z,19.66
2016-04-04T09:59:39.270Z,19.71
2016-04-04T10:00:39.305Z,19.91
2016-04-04T10:01:39.370Z,19.86
2016-04-04T10:02:39.420Z,19.85
2016-04-04T10:03:39.453Z,19.59
2016-04-04T10:04:39.487Z,19.51
2016-04-04T10:05:39.521Z,19.66
2016-04-04T10:06:39.868Z,19.67
2016-04-04T10:07:39.621Z,19.7
2016-04-04T10:08:39.638Z,19.79
2016-04-04T10:09:39.693Z,19.74
2016-04-04T10:10:39.742Z,19.74
2016-04-04T10:11:39.793Z,19.74
2016-04-04T10:12:39.857Z,19.82
2016-04-04T10:13:39.876Z,19.85
2016-04-04T10:14:39.909Z,19.81
2016-04-04T10:15:39.959Z,19.59
2016-04-04T10:16:40.009Z,19.62
2016-04-04T10:17:40.059Z,19.59
2016-04-04T10:18:40.092Z,19.62
2016-04-04T10:19:40.157Z,19.64
2016-04-04T10:20:40.175Z,19.56
2016-04-04T10:21:40.225Z,19.45
2016-04-04T10:22:40.259Z,19.45
2016-04-04T10:23:40.293Z,19.41
2016-04-04T10:24:40.358Z,19.49
2016-04-04T10:25:40.392Z,19.48
2016-04-04T10:26:40.426Z,19.52
2016-04-04T10:27:40.476Z,19.64
2016-04-04T10:28:40.510Z,19.54
2016-04-04T10:29:40.559Z,19.52
2016-04-04T10:30:40.593Z,19.63
2016-04-04T10:31:40.658Z,19.64
2016-04-04T10:32:40.691Z,19.67
2016-04-04T10:33:40.758Z,19.69
2016-04-04T10:34:40.808Z,19.67
2016-04-04T10:35:40.825Z,19.64
2016-04-04T10:36:40.874Z,19.4
2016-04-04T10:37:40.893Z,19.29
2016-04-04T10:38:40.957Z,19.21
2016-04-04T10:39:41.023Z,19.14
2016-04-04T10:40:41.043Z,19.11
2016-04-04T10:41:41.076Z,19.08
2016-04-04T10:42:41.157Z,19.02
2016-04-04T10:43:41.159Z,19.15
2016-04-04T10:44:41.193Z,19.16
2016-04-04T10:45:41.259Z,19.29
2016-04-04T10:46:41.309Z,19.33
2016-04-04T10:47:41.342Z,19.39
2016-04-04T10:48:41.376Z,19.41
2016-04-04T10:49:41.456Z,19.39
2016-04-04T10:50:41.444Z,19.29
2016-04-04T10:51:41.509Z,19.29
2016-04-04T10:52:41.543Z,19.36
2016-04-04T10:53:41.592Z,19.34
2016-04-04T10:54:41.642Z,19.31
2016-04-04T10:55:41.675Z,19.29
2016-04-04T10:56:41.741Z,19.24
2016-04-04T10:57:41.775Z,19.18
2016-04-04T10:58:41.809Z,19.15
2016-04-04T10:59:41.843Z,19.16
2016-04-04T11:00:41.892Z,19.16
2016-04-04T11:01:41.927Z,19.27
2016-04-04T11:02:41.977Z,19.37
2016-04-04T11:03:42.010Z,19.37
2016-04-04T11:04:42.091Z,19.45
2016-04-04T11:05:42.124Z,19.49
2016-04-04T11:06:42.144Z,19.54
2016-04-04T11:07:42.193Z,19.41
2016-04-04T11:08:42.237Z,19.37
2016-04-04T11:09:42.286Z,19.49
2016-04-04T11:10:42.320Z,19.63
2016-04-04T11:11:42.369Z,19.71
2016-04-04T11:12:42.419Z,19.62
2016-04-04T11:13:42.531Z,19.48
2016-04-04T11:14:42.487Z,19.39
2016-04-04T11:15:42.520Z,19.31
2016-04-04T11:16:42.570Z,19.26
2016-04-04T11:17:42.604Z,19.3
2016-04-04T11:18:42.670Z,19.14
2016-04-04T11:19:42.625Z,19.09
2016-04-04T11:20:42.737Z,19.04
2016-04-04T11:21:42.787Z,19.04
2016-04-04T11:22:42.822Z,19.08
2016-04-04T11:23:42.870Z,19.02
2016-04-04T11:24:42.920Z,18.95
2016-04-04T11:25:42.955Z,18.89
2016-04-04T11:26:43.003Z,18.71
2016-04-04T11:27:43.038Z,18.73
2016-04-04T11:28:43.072Z,18.84
2016-04-04T11:29:43.121Z,18.73
2016-04-04T11:30:43.171Z,18.81
2016-04-04T11:31:43.204Z,18.77
2016-04-04T11:32:43.269Z,18.7
2016-04-04T11:33:43.303Z,18.92
2016-04-04T11:34:43.384Z,18.9
2016-04-04T11:35:43.371Z,18.93
2016-04-04T11:36:43.420Z,19.18
2016-04-04T11:37:43.470Z,19.14
2016-04-04T11:38:43.494Z,19.07
2016-04-04T11:39:43.559Z,18.95
2016-04-04T11:40:43.593Z,18.92
2016-04-04T11:41:43.642Z,18.88
2016-04-04T11:42:43.676Z,18.89
2016-04-04T11:43:43.711Z,18.88
2016-04-04T11:44:43.775Z,18.88
2016-04-04T11:45:43.809Z,18.9
2016-04-04T11:46:43.843Z,18.88
2016-04-04T11:47:43.892Z,18.68
2016-04-04T11:48:43.911Z,18.73
2016-04-04T11:49:44.163Z,18.73
2016-04-04T11:50:44.010Z,18.68
2016-04-04T11:51:44.060Z,18.58
2016-04-04T11:52:44.094Z,18.26
2016-04-04T11:53:44.127Z,17.98
2016-04-04T11:54:44.194Z,17.9
2016-04-04T11:55:44.227Z,17.74
2016-04-04T11:56:44.277Z,17.54
2016-04-04T11:57:44.327Z,17.42
2016-04-04T11:58:44.360Z,17.26
2016-04-04T11:59:44.394Z,17.15
2016-04-04T12:00:44.443Z,17.16
2016-04-04T12:01:44.477Z,17.11
2016-04-04T12:02:44.527Z,17.06
2016-04-04T12:03:44.576Z,17.11
2016-04-04T12:04:44.720Z,17.06
2016-04-04T12:05:44.644Z,16.96
2016-04-04T12:06:44.678Z,16.87
2016-04-04T12:07:44.728Z,16.87
2016-04-04T12:08:44.777Z,16.94
2016-04-04T12:09:44.812Z,16.9
2016-04-04T12:10:44.861Z,16.89
2016-04-04T12:11:44.895Z,17.04
2016-04-04T12:12:44.929Z,17.04
2016-04-04T12:13:44.979Z,17.2
2016-04-04T12:14:45.012Z,17.08
2016-04-04T12:15:45.078Z,17.22
2016-04-04T12:16:45.095Z,17.29
2016-04-04T12:17:45.130Z,17.23
2016-04-04T12:18:45.180Z,17.26
2016-04-04T12:19:45.103Z,17.08
2016-04-04T12:20:45.248Z,16.9
2016-04-04T12:21:45.297Z,16.75
2016-04-04T12:22:45.347Z,16.72
2016-04-04T12:23:45.381Z,16.83
2016-04-04T12:24:45.430Z,16.99
2016-04-04T12:25:45.480Z,17.19
2016-04-04T12:26:45.514Z,17.34
2016-04-04T12:27:45.579Z,17.34
2016-04-04T12:28:45.613Z,17.38
2016-04-04T12:29:45.646Z,17.39
2016-04-04T12:30:45.680Z,17.39
2016-04-04T12:31:45.715Z,17.34
2016-04-04T12:32:45.763Z,17.31
2016-04-04T12:33:45.798Z,17.29
2016-04-04T12:34:45.893Z,17.24
2016-04-04T12:35:45.881Z,17.06
2016-04-04T12:36:45.915Z,17.06
2016-04-04T12:37:45.965Z,17.06
2016-04-04T12:38:45.998Z,16.96
2016-04-04T12:39:46.049Z,16.93
2016-04-04T12:40:46.098Z,16.9
2016-04-04T12:41:46.132Z,16.93
2016-04-04T12:42:46.166Z,16.91
2016-04-04T12:43:46.215Z,16.86
2016-04-04T12:44:46.265Z,16.84
2016-04-04T12:45:46.283Z,16.79
2016-04-04T12:46:46.348Z,16.9
2016-04-04T12:47:46.367Z,16.74
2016-04-04T12:48:46.416Z,16.83
2016-04-04T12:49:46.559Z,16.58
2016-04-04T12:50:46.500Z,16.6
2016-04-04T12:51:46.533Z,16.6
2016-04-04T12:52:46.583Z,16.5
2016-04-04T12:53:46.616Z,16.42
2016-04-04T12:54:46.666Z,16.26
2016-04-04T12:55:46.716Z,16.33
2016-04-04T12:56:46.765Z,16.41